createdAt,value
2018-09-23T00:16:11.025Z,98533.81
2018-09-23T00:18:38.645Z,98524.96
2018-09-23T00:35:51.037Z,98488.17
2018-09-23T00:38:17.723Z,98485.84
2018-09-23T00:40:44.531Z,98479.25
2018-09-23T00:43:11.044Z,98467.13
2018-09-23T00:45:37.566Z,98457.48
2018-09-23T00:48:04.061Z,98457.91
2018-09-23T00:50:31.088Z,98458.67
2018-09-23T00:52:57.844Z,98459.13
2018-09-23T00:56:34.626Z,98445.04
2018-09-23T00:59:01.468Z,98452.80
2018-09-23T01:03:41.839Z,98437.28
2018-09-23T01:06:08.819Z,98437.53
2018-09-23T01:08:35.533Z,98425.83
2018-09-23T01:11:02.078Z,98430.95
2018-09-23T01:16:27.436Z,98431.50
2018-09-23T01:18:54.835Z,98426.13
2018-09-23T01:21:22.426Z,98428.31
2018-09-23T01:23:48.918Z,98435.30
2018-09-23T02:39:20.955Z,98315.34
2018-09-23T02:41:47.690Z,98311.32
2018-09-23T02:44:14.189Z,98316.20
2018-09-23T02:46:40.981Z,98306.34
2018-09-23T02:49:07.502Z,98290.53
2018-09-23T02:51:34.013Z,98279.36
2018-09-23T02:54:00.556Z,98287.56
2018-09-23T02:56:27.329Z,98302.26
2018-09-23T02:58:53.807Z,98292.20
2018-09-23T03:01:20.305Z,98290.89
2018-09-23T03:04:29.928Z,98286.08
2018-09-23T03:06:56.657Z,98282.55
2018-09-23T03:09:23.169Z,98273.78
2018-09-23T03:11:49.992Z,98278.59
2018-09-23T03:14:16.509Z,98276.42
2018-09-23T03:16:43.023Z,98282.94
2018-09-23T03:19:09.508Z,98281.06
2018-09-23T03:21:36.267Z,98268.63
2018-09-23T03:24:02.761Z,98262.43
2018-09-23T03:26:29.263Z,98260.72
2018-09-23T03:28:56.066Z,98259.34
2018-09-23T03:31:22.566Z,98259.80
2018-09-23T03:33:49.050Z,98256.23
2018-09-23T03:36:15.552Z,98258.53
2018-09-23T03:51:19.264Z,98224.23
2018-09-23T03:57:28.106Z,98227.28
2018-09-23T04:00:30.048Z,98207.67
2018-09-23T04:02:57.349Z,98204.17
2018-09-23T04:05:23.836Z,98211.34
2018-09-23T04:07:51.906Z,98207.63
2018-09-23T04:10:18.429Z,98208.41
2018-09-23T04:12:44.942Z,98199.89
2018-09-23T04:15:11.714Z,98186.98
2018-09-23T04:17:38.747Z,98167.17
2018-09-23T04:20:05.221Z,98170.81
2018-09-23T04:22:32.010Z,98163.46
2018-09-23T04:24:58.526Z,98157.44
2018-09-23T04:27:26.636Z,98155.16
2018-09-23T04:29:53.391Z,98141.43
2018-09-23T04:45:32.313Z,98124.35
2018-09-23T04:47:58.817Z,98130.27
2018-09-23T05:16:16.328Z,98117.41
2018-09-23T05:18:42.940Z,98107.42
2018-09-23T05:25:20.689Z,98111.45
2018-09-23T05:27:47.326Z,98096.97
2018-09-23T05:30:13.963Z,98110.27
2018-09-23T05:32:41.465Z,98107.16
2018-09-23T05:35:07.971Z,98115.19
2018-09-23T05:37:34.462Z,98106.05
2018-09-23T05:40:00.934Z,98108.30
2018-09-23T05:43:17.268Z,98113.50
2018-09-23T05:49:42.466Z,98093.21
2018-09-23T05:52:08.941Z,98093.89
2018-09-23T05:54:35.426Z,98095.02
2018-09-23T05:57:01.909Z,98094.38
2018-09-23T06:47:43.254Z,98049.05
2018-09-23T06:50:10.590Z,98060.81
2018-09-23T07:09:28.095Z,98021.80
2018-09-23T07:11:55.064Z,98018.39
2018-09-23T07:14:22.109Z,98019.98
2018-09-23T07:16:48.753Z,98034.63
2018-09-23T07:19:15.269Z,98039.36
2018-09-23T07:24:15.137Z,98041.31
2018-09-23T07:26:41.727Z,98043.02
2018-09-23T07:29:09.794Z,98039.72
2018-09-23T07:31:36.764Z,98040.45
2018-09-23T07:34:05.033Z,98035.52
2018-09-23T07:36:32.024Z,98033.25
2018-09-23T07:39:24.348Z,98030.50
2018-09-23T07:44:14.523Z,98008.90
2018-09-23T07:46:41.265Z,98009.28
2018-09-23T07:57:46.454Z,98001.61
2018-09-23T08:00:12.962Z,98001.09
2018-09-23T08:15:05.532Z,97994.59
2018-09-23T08:17:32.044Z,97989.87
2018-09-23T08:19:59.014Z,97966.02
2018-09-23T08:22:25.665Z,97960.33
2018-09-23T08:24:53.607Z,97957.50
2018-09-23T08:27:22.162Z,97950.29
2018-09-23T08:29:49.016Z,97947.42
2018-09-23T08:32:16.650Z,97951.86
2018-09-23T08:39:33.649Z,97952.16
2018-09-23T08:42:00.346Z,97949.09
2018-09-23T08:44:28.022Z,97946.44
2018-09-23T09:45:16.215Z,97860.54
2018-09-23T09:47:42.787Z,97858.75
2018-09-23T10:04:57.807Z,97808.70
2018-09-23T10:07:24.569Z,97795.64
2018-09-23T10:09:51.069Z,97796.14
2018-09-23T10:12:19.669Z,97791.27
2018-09-23T10:19:22.565Z,97765.03
2018-09-23T10:21:54.898Z,97737.87
2018-09-23T10:37:55.300Z,97696.59
2018-09-23T10:54:41.509Z,97717.09
2018-09-23T10:57:08.053Z,97721.87
2018-09-23T10:59:34.669Z,97722.50
2018-09-23T11:02:02.595Z,97721.03
2018-09-23T11:04:29.655Z,97731.27
2018-09-23T11:06:56.156Z,97758.13
2018-09-23T11:09:24.004Z,97782.27
2018-09-23T11:27:38.085Z,97721.16
2018-09-23T11:30:04.893Z,97714.14
2018-09-23T11:32:31.402Z,97708.13
2018-09-23T11:34:57.902Z,97695.61
2018-09-23T11:42:18.369Z,97624.47
2018-09-23T11:47:47.211Z,97615.76
2018-09-23T11:50:13.863Z,97622.01
2018-09-23T12:12:20.055Z,97539.63
2018-09-23T12:15:40.600Z,97539.11
2018-09-23T12:18:07.458Z,97548.17
2018-09-23T12:20:34.341Z,97594.11
2018-09-23T12:25:33.346Z,97616.93
2018-09-23T12:28:01.230Z,97614.47
2018-09-23T12:30:28.468Z,97622.16
2018-09-23T12:32:55.408Z,97649.85
2018-09-23T12:35:23.208Z,97647.02
2018-09-23T12:48:10.994Z,97588.53
2018-09-23T12:50:37.541Z,97597.47
2018-09-23T12:53:07.483Z,97604.89
2018-09-23T12:55:36.377Z,97629.42
2018-09-23T12:58:02.857Z,97647.94
2018-09-23T13:00:36.651Z,97707.23
2018-09-23T13:03:06.658Z,97738.89
2018-09-23T13:05:36.671Z,97730.09
2018-09-23T13:08:04.257Z,97691.95
2018-09-23T13:13:07.644Z,97744.72
2018-09-23T17:28:51.408Z,98342.05
2018-09-23T17:31:19.456Z,98352.97
2018-09-23T17:33:47.270Z,98363.33
2018-09-23T17:36:13.927Z,98377.91
2018-09-23T17:38:41.550Z,98382.95
2018-09-23T17:41:08.365Z,98401.27
2018-09-23T17:43:34.965Z,98402.66
2018-09-23T17:46:02.504Z,98408.37
2018-09-23T17:48:30.873Z,98409.69
2018-09-23T17:50:57.401Z,98421.05
2018-09-23T17:53:24.694Z,98443.28
2018-09-23T17:55:53.306Z,98441.56
2018-09-23T17:58:20.510Z,98451.03
2018-09-23T18:00:48.416Z,98466.66
2018-09-23T18:03:15.418Z,98496.99
2018-09-23T18:05:43.125Z,98490.30
2018-09-23T18:08:11.214Z,98496.34
2018-09-23T18:10:39.132Z,98507.20
2018-09-23T18:13:05.606Z,98508.56
2018-09-23T18:15:33.962Z,98525.30
2018-09-23T18:18:01.356Z,98520.70
2018-09-23T18:20:27.832Z,98542.53
2018-09-23T18:22:54.303Z,98544.67
2018-09-23T18:25:21.312Z,98551.12
2018-09-23T18:27:47.809Z,98552.18
2018-09-23T18:30:15.394Z,98554.40
2018-09-23T18:32:43.341Z,98564.58
2018-09-23T18:35:09.817Z,98575.25
2018-09-23T18:38:20.840Z,98591.70
2018-09-23T18:40:47.578Z,98594.66
2018-09-23T18:43:14.273Z,98613.91
2018-09-23T18:47:41.080Z,98629.79
2018-09-23T18:50:07.924Z,98635.59
2018-09-23T18:52:34.818Z,98637.27
2018-09-23T18:55:06.015Z,98659.23
2018-09-23T18:57:32.560Z,98650.03
2018-09-23T20:03:53.382Z,98834.63
2018-09-23T20:09:00.227Z,98853.89
2018-09-23T20:11:27.534Z,98858.28
2018-09-23T20:13:54.176Z,98860.00
2018-09-23T20:16:21.472Z,98874.53
2018-09-23T20:18:47.952Z,98867.36
2018-09-23T20:21:14.459Z,98895.37
2018-09-23T20:23:41.377Z,98892.32
2018-09-23T20:26:08.557Z,98895.02
2018-09-23T20:28:35.033Z,98901.07
2018-09-23T20:31:02.057Z,98909.89
2018-09-23T20:33:28.838Z,98910.67
2018-09-23T20:35:57.693Z,98919.31
2018-09-23T20:38:26.606Z,98932.04
2018-09-23T20:40:54.134Z,98931.17
2018-09-23T20:43:21.496Z,98931.14
2018-09-23T20:45:48.593Z,98945.70
2018-09-23T20:48:16.045Z,98943.45
2018-09-23T20:50:42.530Z,98945.62
2018-09-23T20:53:10.506Z,98943.07
2018-09-23T20:55:37.255Z,98954.93
2018-09-23T20:58:05.937Z,98967.10
2018-09-23T21:00:33.697Z,98963.68
2018-09-23T21:03:00.334Z,98980.24
2018-09-23T21:05:26.837Z,98986.42
2018-09-23T21:07:53.349Z,98985.15
2018-09-23T21:10:21.181Z,98991.72
2018-09-23T21:12:48.369Z,98991.89
2018-09-23T21:15:15.000Z,99006.17
2018-09-23T21:17:41.482Z,99011.49
2018-09-23T21:20:08.332Z,99016.75
2018-09-23T21:22:34.929Z,99023.77
2018-09-23T21:25:01.437Z,99034.31
2018-09-23T21:27:28.377Z,99017.64
2018-09-23T21:29:55.680Z,99026.81
2018-09-23T21:32:22.214Z,99034.20
2018-09-23T21:34:49.340Z,99048.21
2018-09-23T21:37:15.928Z,99047.31
2018-09-23T21:39:42.438Z,99048.66
2018-09-23T21:42:09.429Z,99061.31
2018-09-23T21:44:35.937Z,99068.78
2018-09-23T21:47:02.435Z,99069.23
2018-09-23T21:49:29.242Z,99073.63
2018-09-23T21:51:55.746Z,99077.56
2018-09-23T21:54:22.218Z,99088.55
2018-09-23T21:56:49.136Z,99092.02
2018-09-23T21:59:16.610Z,99099.89
2018-09-23T22:01:43.136Z,99095.16
2018-09-23T22:04:10.083Z,99102.17
2018-09-23T22:06:36.565Z,99115.66
2018-09-23T22:09:03.037Z,99119.16
2018-09-23T22:11:29.528Z,99118.03
2018-09-23T22:13:56.547Z,99118.88
2018-09-23T22:16:23.029Z,99143.31
2018-09-23T22:18:49.541Z,99148.16
2018-09-23T22:21:16.534Z,99143.86
2018-09-23T22:23:43.034Z,99142.16
2018-09-23T22:26:09.534Z,99143.51
2018-09-23T22:28:36.541Z,99143.70
2018-09-23T22:33:41.821Z,99157.16
2018-09-23T22:44:03.780Z,99189.50
2018-09-23T22:46:30.411Z,99190.91
2018-09-23T22:52:03.621Z,99202.34
2018-09-23T22:54:30.255Z,99193.53
2018-09-23T22:56:56.734Z,99199.23
2018-09-23T22:59:24.421Z,99206.30
2018-09-23T23:01:50.946Z,99205.08
2018-09-23T23:04:18.108Z,99213.47
2018-09-23T23:06:45.593Z,99227.85
2018-09-23T23:15:35.713Z,99233.09
2018-09-23T23:18:02.250Z,99238.44
2018-09-23T23:20:29.089Z,99242.34
2018-09-23T23:22:55.581Z,99248.84
2018-09-23T23:25:22.084Z,99247.63
2018-09-23T23:27:51.569Z,99257.26
2018-09-23T23:30:18.517Z,99250.30
2018-09-23T23:32:46.640Z,99271.76
2018-09-23T23:46:47.453Z,99300.02
2018-09-23T23:49:14.276Z,99292.50
2018-09-23T23:51:40.778Z,99309.98
2018-09-23T23:54:07.272Z,99330.07
2018-09-23T23:56:33.907Z,99328.81
2018-09-23T23:59:00.828Z,99328.75
